createdAt,value
2022-11-16T00:02:12.944Z,447.10
2022-11-16T00:04:39.708Z,457.92
2022-11-16T00:07:06.840Z,450.88
2022-11-16T00:09:33.842Z,440.73
2022-11-16T00:12:04.078Z,439.70
2022-11-16T00:14:33.214Z,446.90
2022-11-16T00:17:00.158Z,458.40
2022-11-16T00:19:27.455Z,460.75
2022-11-16T00:21:54.772Z,454.30
2022-11-16T00:24:23.232Z,455.13
2022-11-16T00:26:50.810Z,450.88
2022-11-16T00:29:20.417Z,452.08
2022-11-16T00:31:47.889Z,460.33
2022-11-16T00:34:15.071Z,458.08
2022-11-16T00:36:41.678Z,459.10
2022-11-16T00:39:11.701Z,453.27
2022-11-16T00:41:38.212Z,442.47
2022-11-16T00:44:04.957Z,449.83
2022-11-16T00:46:31.602Z,449.77
2022-11-16T00:48:58.148Z,449.67
2022-11-16T00:51:24.940Z,447.38
2022-11-16T00:53:51.682Z,438.10
2022-11-16T00:56:18.380Z,436.88
2022-11-16T00:58:45.615Z,442.83
2022-11-16T01:01:12.477Z,441.98
2022-11-16T01:03:39.502Z,447.83
2022-11-16T01:06:11.837Z,458.70
2022-11-16T01:08:39.701Z,466.83
2022-11-16T01:11:25.387Z,476.23
2022-11-16T01:13:52.907Z,476.40
2022-11-16T01:16:21.980Z,469.48
2022-11-16T01:18:50.804Z,469.83
2022-11-16T01:21:18.321Z,469.85
2022-11-16T01:23:45.096Z,460.20
2022-11-16T01:26:12.134Z,455.90
2022-11-16T01:28:40.816Z,456.50
2022-11-16T01:31:10.755Z,455.60
2022-11-16T01:33:38.803Z,451.85
2022-11-16T01:36:17.077Z,452.27
2022-11-16T01:38:45.869Z,455.30
2022-11-16T01:41:23.931Z,450.70
2022-11-16T01:43:58.864Z,444.05
2022-11-16T01:46:31.112Z,451.80
2022-11-16T01:49:08.822Z,440.55
2022-11-16T01:51:36.687Z,442.85
2022-11-16T01:54:07.745Z,438.10
2022-11-16T01:56:38.870Z,434.20
2022-11-16T01:59:15.075Z,428.17
2022-11-16T02:01:42.066Z,437.17
2022-11-16T02:04:14.009Z,440.75
2022-11-16T02:07:06.422Z,433.77
2022-11-16T02:10:10.344Z,427.45
2022-11-16T02:13:07.391Z,427.30
2022-11-16T02:16:08.930Z,435.80
2022-11-16T02:18:44.796Z,437.15
2022-11-16T02:21:25.760Z,441.67
2022-11-16T02:24:09.100Z,438.67
2022-11-16T02:27:00.776Z,448.90
2022-11-16T02:29:41.187Z,455.27
2022-11-16T02:32:14.234Z,462.17
2022-11-16T02:34:56.924Z,464.55
2022-11-16T02:37:27.174Z,466.47
2022-11-16T02:39:59.633Z,465.85
2022-11-16T02:42:32.484Z,467.00
2022-11-16T02:45:00.725Z,468.58
2022-11-16T02:47:32.808Z,472.38
2022-11-16T02:50:06.556Z,471.83
2022-11-16T02:52:33.382Z,476.20
2022-11-16T02:55:00.831Z,478.58
2022-11-16T02:57:42.384Z,476.83
2022-11-16T03:00:29.462Z,465.58
2022-11-16T03:03:32.555Z,461.55
2022-11-16T03:06:11.550Z,451.27
2022-11-16T03:08:42.800Z,449.40
2022-11-16T03:11:30.169Z,442.70
2022-11-16T03:14:07.427Z,431.10
2022-11-16T03:16:45.307Z,428.55
2022-11-16T03:19:19.601Z,425.42
2022-11-16T03:21:49.552Z,424.70
2022-11-16T03:24:16.300Z,424.63
2022-11-16T03:27:06.568Z,421.00
2022-11-16T03:29:50.667Z,392.95
2022-11-16T03:32:20.411Z,350.60
2022-11-16T03:35:01.980Z,313.80
2022-11-16T03:37:30.164Z,271.73
2022-11-16T03:40:01.271Z,232.02
2022-11-16T03:42:31.997Z,178.15
2022-11-16T03:44:59.997Z,125.32
2022-11-16T03:47:26.667Z,95.32
2022-11-16T03:49:53.275Z,82.13
2022-11-16T03:52:20.273Z,63.77
2022-11-16T03:54:48.984Z,66.30
2022-11-16T03:57:18.440Z,37.75
2022-11-16T03:59:50.107Z,25.85
2022-11-16T04:02:16.700Z,18.48
2022-11-16T04:05:01.774Z,15.00
2022-11-16T04:07:47.167Z,13.13
2022-11-16T04:10:33.727Z,9.02
2022-11-16T04:13:34.219Z,7.97
2022-11-16T04:16:19.414Z,6.18
2022-11-16T04:19:04.962Z,6.85
2022-11-16T04:21:54.165Z,8.35
2022-11-16T04:24:26.938Z,7.80
2022-11-16T04:27:17.516Z,7.50
2022-11-16T04:29:44.612Z,7.50
2022-11-16T04:32:30.161Z,6.28
2022-11-16T04:35:16.260Z,5.30
2022-11-16T04:37:49.965Z,4.93
2022-11-16T04:40:24.711Z,5.55
2022-11-16T04:42:54.225Z,5.68
2022-11-16T04:45:41.267Z,5.78
2022-11-16T04:48:10.031Z,5.20
2022-11-16T04:50:38.195Z,5.00
2022-11-16T04:53:06.012Z,5.00
2022-11-16T04:55:39.489Z,5.10
2022-11-16T04:58:06.272Z,4.30
2022-11-16T05:00:33.153Z,3.88
2022-11-16T05:03:01.785Z,3.80
2022-11-16T05:05:29.631Z,3.35
2022-11-16T05:07:57.640Z,2.90
2022-11-16T05:10:28.091Z,2.50
2022-11-16T05:12:55.512Z,2.42
2022-11-16T05:15:23.238Z,2.90
2022-11-16T05:17:51.429Z,2.67
2022-11-16T05:20:41.126Z,2.78
2022-11-16T05:23:28.468Z,2.63
2022-11-16T05:25:57.451Z,2.70
2022-11-16T05:28:24.207Z,2.60
2022-11-16T05:30:52.207Z,2.60
2022-11-16T05:33:22.374Z,2.70
2022-11-16T05:35:51.520Z,2.50
2022-11-16T05:38:19.382Z,2.90
2022-11-16T05:40:49.668Z,2.75
2022-11-16T05:43:16.886Z,2.90
2022-11-16T05:45:52.067Z,3.00
2022-11-16T05:48:19.325Z,3.03
2022-11-16T05:50:45.951Z,3.30
2022-11-16T05:53:19.916Z,2.95
2022-11-16T05:55:47.777Z,3.50
2022-11-16T05:58:14.423Z,3.80
2022-11-16T06:00:41.106Z,3.90
2022-11-16T06:03:10.004Z,4.00
2022-11-16T06:05:40.416Z,4.70
2022-11-16T06:08:08.396Z,5.00
2022-11-16T06:10:35.251Z,4.70
2022-11-16T06:13:02.071Z,5.60
2022-11-16T06:15:29.075Z,5.68
2022-11-16T06:17:55.704Z,7.10
2022-11-16T06:20:23.251Z,8.50
2022-11-16T06:22:52.522Z,7.93
2022-11-16T06:25:19.470Z,8.53
2022-11-16T06:27:46.652Z,9.00
2022-11-16T06:30:16.573Z,11.65
2022-11-16T06:32:47.061Z,13.10
2022-11-16T06:35:15.646Z,18.63
2022-11-16T06:37:45.281Z,26.52
2022-11-16T06:40:12.463Z,38.92
2022-11-16T06:42:42.456Z,44.17
2022-11-16T06:45:13.446Z,43.42
2022-11-16T06:47:44.996Z,26.13
2022-11-16T06:50:11.989Z,9.85
2022-11-16T06:52:41.617Z,6.90
2022-11-16T06:55:08.799Z,5.38
2022-11-16T06:57:37.482Z,4.63
2022-11-16T07:00:08.066Z,4.53
2022-11-16T07:02:38.151Z,4.40
2022-11-16T07:05:09.986Z,4.72
2022-11-16T07:07:38.728Z,4.82
2022-11-16T07:10:06.303Z,4.85
2022-11-16T07:12:33.193Z,4.33
2022-11-16T07:15:01.715Z,4.68
2022-11-16T07:17:31.048Z,6.10
2022-11-16T07:23:07.079Z,6.23
2022-11-16T07:25:36.151Z,6.50
2022-11-16T07:28:07.101Z,7.00
2022-11-16T07:30:35.029Z,6.90
2022-11-16T07:33:08.792Z,6.95
2022-11-16T07:35:53.473Z,6.90
2022-11-16T07:38:20.642Z,6.72
2022-11-16T07:40:47.380Z,6.53
2022-11-16T07:43:17.454Z,6.53
2022-11-16T07:49:10.867Z,8.40
2022-11-16T07:51:47.646Z,9.73
2022-11-16T07:54:33.998Z,10.40
2022-11-16T07:57:00.760Z,10.47
2022-11-16T07:59:28.469Z,10.30
2022-11-16T08:01:59.374Z,9.23
2022-11-16T08:04:27.141Z,8.10
2022-11-16T08:06:53.883Z,7.10
2022-11-16T08:09:21.773Z,6.90
2022-11-16T08:11:51.419Z,6.45
2022-11-16T08:14:19.214Z,6.53
2022-11-16T08:16:47.916Z,7.20
2022-11-16T08:19:15.352Z,7.22
2022-11-16T08:21:51.449Z,7.27
2022-11-16T08:24:19.632Z,7.30
2022-11-16T08:26:46.986Z,7.60
2022-11-16T08:29:15.181Z,7.30
2022-11-16T08:31:47.480Z,9.10
2022-11-16T08:34:18.065Z,8.40
2022-11-16T08:36:48.844Z,8.27
2022-11-16T08:39:20.610Z,8.10
2022-11-16T08:41:47.179Z,9.55
2022-11-16T08:44:15.706Z,7.95
2022-11-16T08:46:46.062Z,7.57
2022-11-16T08:49:22.314Z,6.65
2022-11-16T08:51:49.063Z,6.97
2022-11-16T08:54:15.727Z,6.30
2022-11-16T08:56:43.397Z,5.03
2022-11-16T08:59:12.349Z,4.90
2022-11-16T09:01:44.389Z,4.10
2022-11-16T09:04:11.587Z,4.20
2022-11-16T09:06:38.138Z,4.30
2022-11-16T09:09:04.872Z,4.28
2022-11-16T09:11:31.435Z,4.43
2022-11-16T09:13:58.950Z,4.70
2022-11-16T09:16:27.847Z,4.20
2022-11-16T09:18:54.820Z,4.05
2022-11-16T09:21:26.600Z,5.00
2022-11-16T09:23:54.746Z,5.15
2022-11-16T09:26:23.104Z,6.10
2022-11-16T09:28:58.363Z,8.95
2022-11-16T09:31:29.487Z,8.67
2022-11-16T09:33:58.802Z,7.32
2022-11-16T09:36:27.309Z,7.00
2022-11-16T09:39:23.837Z,4.75
2022-11-16T09:41:59.299Z,5.25
2022-11-16T09:44:37.980Z,4.45
2022-11-16T09:47:10.448Z,3.63
2022-11-16T09:49:42.879Z,3.28
2022-11-16T09:52:18.776Z,2.83
2022-11-16T09:54:47.326Z,2.87
2022-11-16T09:57:18.956Z,2.67
2022-11-16T09:59:49.621Z,2.83
2022-11-16T10:02:29.733Z,3.30
2022-11-16T10:05:22.792Z,3.42
2022-11-16T10:07:55.216Z,3.70
2022-11-16T10:10:34.820Z,3.47
2022-11-16T10:13:19.876Z,3.50
2022-11-16T10:15:56.496Z,3.40
2022-11-16T10:18:37.287Z,4.20
2022-11-16T10:21:35.052Z,5.20
2022-11-16T10:24:22.390Z,6.40
2022-11-16T10:27:08.260Z,6.30
2022-11-16T10:29:37.591Z,5.20
2022-11-16T10:32:28.130Z,4.88
2022-11-16T10:34:58.448Z,6.55
2022-11-16T10:37:31.101Z,4.10
2022-11-16T10:39:57.990Z,3.80
2022-11-16T10:42:39.508Z,3.50
2022-11-16T10:45:24.992Z,4.57
2022-11-16T10:48:01.887Z,5.40
2022-11-16T10:50:40.850Z,6.85
2022-11-16T10:53:12.715Z,7.25
2022-11-16T10:55:39.425Z,7.10
2022-11-16T10:58:06.538Z,5.15
2022-11-16T11:00:38.853Z,4.05
2022-11-16T11:03:06.049Z,3.60
2022-11-16T11:05:34.952Z,4.20
2022-11-16T11:08:10.198Z,4.00
2022-11-16T11:10:41.671Z,4.10
2022-11-16T11:13:11.396Z,3.80
2022-11-16T11:15:42.948Z,3.60
2022-11-16T11:18:25.637Z,3.50
2022-11-16T11:21:08.748Z,3.63
2022-11-16T11:23:49.170Z,2.50
2022-11-16T11:26:37.426Z,1.98
2022-11-16T11:29:23.842Z,2.70
2022-11-16T11:31:54.093Z,2.50
2022-11-16T11:34:24.700Z,3.00
2022-11-16T11:36:57.850Z,2.80
2022-11-16T11:39:24.499Z,2.72
2022-11-16T11:42:13.819Z,3.20
2022-11-16T11:44:49.823Z,3.05
2022-11-16T11:47:59.380Z,3.70
2022-11-16T11:50:47.916Z,3.38
2022-11-16T11:53:57.148Z,4.05
2022-11-16T11:56:24.951Z,4.10
2022-11-16T11:58:52.560Z,4.22
2022-11-16T12:01:55.955Z,3.50
2022-11-16T12:04:47.086Z,3.65
2022-11-16T12:07:35.571Z,3.72
2022-11-16T12:10:29.655Z,3.58
2022-11-16T12:13:01.978Z,3.40
2022-11-16T12:15:38.963Z,2.95
2022-11-16T12:18:05.639Z,2.80
2022-11-16T12:21:02.641Z,2.65
2022-11-16T12:23:51.541Z,2.78
2022-11-16T12:26:51.765Z,2.42
2022-11-16T12:29:46.546Z,2.42
2022-11-16T12:32:48.308Z,2.30
2022-11-16T12:35:25.174Z,1.70
2022-11-16T12:38:28.739Z,1.95
2022-11-16T12:41:24.249Z,2.03
2022-11-16T12:44:00.910Z,2.47
2022-11-16T12:46:42.641Z,2.20
2022-11-16T12:49:24.787Z,2.15
2022-11-16T12:52:11.866Z,2.20
2022-11-16T12:54:38.652Z,2.10
2022-11-16T12:57:24.630Z,2.35
2022-11-16T13:00:14.754Z,2.30
2022-11-16T13:02:54.483Z,2.20
2022-11-16T13:05:33.573Z,2.10
2022-11-16T13:08:12.966Z,2.08
2022-11-16T13:10:45.547Z,2.10
2022-11-16T13:13:35.823Z,2.20
2022-11-16T13:16:05.478Z,2.15
2022-11-16T13:18:35.741Z,2.50
2022-11-16T13:21:35.716Z,2.40
2022-11-16T13:24:16.891Z,2.70
2022-11-16T13:27:16.272Z,2.40
2022-11-16T13:30:14.013Z,2.70
2022-11-16T13:33:22.184Z,2.90
2022-11-16T13:35:48.832Z,2.90
2022-11-16T13:38:54.382Z,2.40
2022-11-16T13:41:38.550Z,2.70
2022-11-16T13:44:22.163Z,2.80
2022-11-16T13:46:56.103Z,2.85
2022-11-16T13:49:36.908Z,2.47
2022-11-16T13:52:22.623Z,2.33
2022-11-16T13:54:56.081Z,2.35
2022-11-16T13:57:27.468Z,2.42
2022-11-16T14:00:08.682Z,2.17
2022-11-16T14:02:37.975Z,2.40
2022-11-16T14:05:14.241Z,2.58
2022-11-16T14:07:44.781Z,2.70
2022-11-16T14:10:12.781Z,3.05
2022-11-16T14:12:49.180Z,2.80
2022-11-16T14:15:18.426Z,2.47
2022-11-16T14:17:54.167Z,2.53
2022-11-16T14:20:38.792Z,2.58
2022-11-16T14:23:38.847Z,2.50
2022-11-16T14:26:37.329Z,2.42
2022-11-16T14:29:11.673Z,2.55
2022-11-16T14:31:52.491Z,2.95
2022-11-16T14:34:25.626Z,3.03
2022-11-16T14:36:53.362Z,3.00
2022-11-16T14:39:23.088Z,2.70
2022-11-16T14:41:50.056Z,3.10
2022-11-16T14:44:26.420Z,3.20
2022-11-16T14:46:53.445Z,2.58
2022-11-16T14:49:21.518Z,2.67
2022-11-16T14:51:59.476Z,3.10
2022-11-16T14:54:34.901Z,3.20
2022-11-16T14:57:06.091Z,4.03
2022-11-16T14:59:33.134Z,2.80
2022-11-16T15:02:12.368Z,2.63
2022-11-16T15:04:39.358Z,2.45
2022-11-16T15:07:08.955Z,2.70
2022-11-16T15:09:44.580Z,2.38
2022-11-16T15:12:42.959Z,2.50
2022-11-16T15:15:12.602Z,2.30
2022-11-16T15:17:43.907Z,2.70
2022-11-16T15:20:13.517Z,2.90
2022-11-16T15:22:42.431Z,2.40
2022-11-16T15:25:35.611Z,2.63
2022-11-16T15:28:26.084Z,2.83
2022-11-16T15:31:05.325Z,2.70
2022-11-16T15:33:37.636Z,2.50
2022-11-16T15:36:23.266Z,2.75
2022-11-16T15:38:54.835Z,2.75
2022-11-16T15:41:28.211Z,2.70
2022-11-16T15:44:15.250Z,2.67
2022-11-16T15:46:57.040Z,2.90
2022-11-16T15:49:33.194Z,2.78
2022-11-16T15:52:00.391Z,2.85
2022-11-16T15:54:30.279Z,2.80
2022-11-16T15:57:07.857Z,3.60
2022-11-16T15:59:36.960Z,3.17
2022-11-16T16:02:04.186Z,3.13
2022-11-16T16:04:31.057Z,3.45
2022-11-16T16:06:59.876Z,3.10
2022-11-16T16:09:31.195Z,2.97
2022-11-16T16:12:19.040Z,3.10
2022-11-16T16:14:48.554Z,2.72
2022-11-16T16:17:27.401Z,2.70
2022-11-16T16:20:01.861Z,2.95
2022-11-16T16:22:33.942Z,2.90
2022-11-16T16:25:04.155Z,2.85
2022-11-16T16:27:32.391Z,2.83
2022-11-16T16:30:05.420Z,3.00
2022-11-16T16:32:34.446Z,2.90
2022-11-16T16:35:03.508Z,2.75
2022-11-16T16:37:32.998Z,2.80
2022-11-16T16:40:00.044Z,2.50
2022-11-16T16:42:27.008Z,2.47
2022-11-16T16:44:53.691Z,2.70
2022-11-16T16:47:20.967Z,2.40
2022-11-16T16:49:48.962Z,2.58
2022-11-16T16:52:16.171Z,2.20
2022-11-16T16:54:42.867Z,2.57
2022-11-16T16:57:17.411Z,2.40
2022-11-16T16:59:46.710Z,2.30
2022-11-16T17:02:13.407Z,2.30
2022-11-16T17:04:40.646Z,2.22
2022-11-16T17:07:07.189Z,2.25
2022-11-16T17:09:33.830Z,2.92
2022-11-16T17:12:00.497Z,3.10
2022-11-16T17:14:27.231Z,2.90
2022-11-16T17:16:54.032Z,2.55
2022-11-16T17:19:21.081Z,2.42
2022-11-16T17:21:47.703Z,2.35
2022-11-16T17:24:14.365Z,2.80
2022-11-16T17:26:41.238Z,3.58
2022-11-16T17:29:08.188Z,2.53
2022-11-16T17:31:36.241Z,2.55
2022-11-16T17:34:02.970Z,2.38
2022-11-16T17:36:29.593Z,2.40
2022-11-16T17:38:56.335Z,2.58
2022-11-16T17:41:22.978Z,2.40
2022-11-16T17:43:52.558Z,2.70
2022-11-16T17:46:21.570Z,3.00
2022-11-16T17:48:48.968Z,2.75
2022-11-16T17:51:21.261Z,2.80
2022-11-16T17:53:49.780Z,2.90
2022-11-16T17:56:26.042Z,2.67
2022-11-16T17:58:55.068Z,2.40
2022-11-16T18:01:25.214Z,2.60
2022-11-16T18:03:51.934Z,2.87
2022-11-16T18:06:20.912Z,2.70
2022-11-16T18:08:48.178Z,2.75
2022-11-16T18:11:17.711Z,2.75
2022-11-16T18:13:48.000Z,2.70
2022-11-16T18:16:23.959Z,2.53
2022-11-16T18:18:57.263Z,2.95
2022-11-16T18:22:14.480Z,2.75
2022-11-16T18:24:41.301Z,2.78
2022-11-16T18:27:07.968Z,2.75
2022-11-16T18:29:36.280Z,3.30
2022-11-16T18:32:02.901Z,3.67
2022-11-16T18:34:29.676Z,3.10
2022-11-16T18:36:56.423Z,3.20
2022-11-16T18:39:23.166Z,3.25
2022-11-16T18:41:55.002Z,3.50
2022-11-16T18:44:22.483Z,3.55
2022-11-16T18:46:49.295Z,3.45
2022-11-16T18:49:16.055Z,3.58
2022-11-16T18:51:44.159Z,2.70
2022-11-16T18:54:13.099Z,2.92
2022-11-16T18:56:39.758Z,3.05
2022-11-16T19:01:49.476Z,2.77
2022-11-16T19:04:16.154Z,2.88
2022-11-16T19:06:42.749Z,2.88
2022-11-16T19:09:09.769Z,2.50
2022-11-16T19:11:36.410Z,2.50
2022-11-16T19:14:07.773Z,2.63
2022-11-16T19:16:34.516Z,2.90
2022-11-16T19:19:03.962Z,2.80
2022-11-16T19:21:30.988Z,2.80
2022-11-16T19:23:57.807Z,2.40
2022-11-16T19:26:26.509Z,2.30
2022-11-16T19:28:54.002Z,2.53
2022-11-16T19:31:24.977Z,2.60
2022-11-16T19:33:56.386Z,2.90
2022-11-16T19:36:26.406Z,2.50
2022-11-16T19:38:53.399Z,2.75
2022-11-16T19:41:22.626Z,2.70
2022-11-16T19:43:57.317Z,2.80
2022-11-16T19:46:24.799Z,2.90
2022-11-16T19:48:52.102Z,3.10
2022-11-16T19:51:23.360Z,3.20
2022-11-16T19:53:49.994Z,3.50
2022-11-16T19:56:20.621Z,3.95
2022-11-16T19:58:48.069Z,4.43
2022-11-16T20:01:20.325Z,4.40
2022-11-16T20:03:48.784Z,3.90
2022-11-16T20:06:36.611Z,4.30
2022-11-16T20:09:11.198Z,6.03
2022-11-16T20:11:40.268Z,6.97
2022-11-16T20:14:09.374Z,8.32
2022-11-16T20:16:40.503Z,8.60
2022-11-16T20:19:08.869Z,10.48
2022-11-16T20:21:40.639Z,9.37
2022-11-16T20:24:09.631Z,11.33
2022-11-16T20:26:37.119Z,7.50
2022-11-16T20:29:04.717Z,5.55
2022-11-16T20:31:42.803Z,4.78
2022-11-16T20:34:13.864Z,5.10
2022-11-16T20:36:43.610Z,5.38
2022-11-16T20:39:14.856Z,5.40
2022-11-16T20:41:42.676Z,5.32
2022-11-16T20:44:16.329Z,5.20
2022-11-16T20:46:45.028Z,4.67
2022-11-16T20:49:11.666Z,4.25
2022-11-16T20:51:38.378Z,3.88
2022-11-16T20:54:05.099Z,3.57
2022-11-16T20:56:31.775Z,3.03
2022-11-16T20:58:59.506Z,3.30
2022-11-16T21:01:32.164Z,3.25
2022-11-16T21:04:01.270Z,3.90
2022-11-16T21:06:28.514Z,4.20
2022-11-16T21:08:55.951Z,5.40
2022-11-16T21:11:25.198Z,5.63
2022-11-16T21:14:10.887Z,5.50
2022-11-16T21:16:38.171Z,5.13
2022-11-16T21:19:05.282Z,4.50
2022-11-16T21:21:37.295Z,4.20
2022-11-16T21:24:04.228Z,4.13
2022-11-16T21:26:34.628Z,3.88
2022-11-16T21:29:02.251Z,3.28
2022-11-16T21:31:44.598Z,3.03
2022-11-16T21:34:12.267Z,3.15
2022-11-16T21:36:41.622Z,3.00
2022-11-16T21:39:08.241Z,2.95
2022-11-16T21:41:34.924Z,3.13
2022-11-16T21:44:01.489Z,2.97
2022-11-16T21:46:28.335Z,3.00
2022-11-16T21:48:56.332Z,2.97
2022-11-16T21:51:25.961Z,3.10
2022-11-16T21:53:52.801Z,3.10
2022-11-16T21:56:21.887Z,3.30
2022-11-16T21:58:52.830Z,2.92
2022-11-16T22:01:22.160Z,3.40
2022-11-16T22:04:09.504Z,3.00
2022-11-16T22:06:54.858Z,2.88
2022-11-16T22:09:21.670Z,2.88
2022-11-16T22:11:48.302Z,3.20
2022-11-16T22:14:15.053Z,2.90
2022-11-16T22:16:41.650Z,3.17
2022-11-16T22:19:08.374Z,3.03
2022-11-16T22:21:35.042Z,3.10
2022-11-16T22:24:02.623Z,3.13
2022-11-16T22:26:29.449Z,3.00
2022-11-16T22:28:56.911Z,2.90
2022-11-16T22:31:43.656Z,2.80
2022-11-16T22:34:33.356Z,2.70
2022-11-16T22:36:59.997Z,3.50
2022-11-16T22:39:26.593Z,3.50
2022-11-16T22:41:53.218Z,4.13
2022-11-16T22:44:19.780Z,5.63
2022-11-16T22:46:46.502Z,4.20
2022-11-16T22:49:13.323Z,4.18
2022-11-16T22:51:39.960Z,4.00
2022-11-16T22:54:07.379Z,4.70
2022-11-16T22:56:34.304Z,5.40
2022-11-16T22:59:02.427Z,5.72
2022-11-16T23:01:29.121Z,6.20
2022-11-16T23:03:57.890Z,6.60
2022-11-16T23:06:24.931Z,8.17
2022-11-16T23:08:51.484Z,9.40
2022-11-16T23:11:42.319Z,10.63
2022-11-16T23:14:36.324Z,13.00
2022-11-16T23:17:03.869Z,15.02
2022-11-16T23:19:49.010Z,15.43
2022-11-16T23:22:39.314Z,16.08
2022-11-16T23:25:28.198Z,13.35
2022-11-16T23:31:40.692Z,14.05
2022-11-16T23:34:07.339Z,14.27
2022-11-16T23:36:33.970Z,13.63
2022-11-16T23:39:00.736Z,14.18
2022-11-16T23:41:45.820Z,15.18
2022-11-16T23:44:14.027Z,12.50
2022-11-16T23:46:42.058Z,12.40
2022-11-16T23:49:08.705Z,12.88
2022-11-16T23:51:36.520Z,13.35
2022-11-16T23:54:06.720Z,13.43
2022-11-16T23:56:33.230Z,16.27
2022-11-16T23:58:59.976Z,14.10
